AVP weather

Wilkes Barre Scranton International Airport
Wilkes-Barre/Scranton, Pennsylvania, United States

Public forecast

Using degrees Fahrenheit for public forecast. Weather courtesy of forecast.io.

Current aviation weather report (METAR) for Wilkes Barre Scranton International Airport

Retrieved 2019/12/11 18:54 UTC (6 minutes ago):

KAVP 111854Z 23015G20KT 10SM CLR 02/M11 A3018 RMK AO2 SLP228 T00171106

Aviation forecast (TAF) for Wilkes Barre Scranton International Airport

Retrieved 2019/12/11 18:24 UTC (36 minutes ago):

TAF KAVP 111721Z 1118/1218 26010G18KT P6SM SCT045 FM120400 31008KT P6SM SKC